Date,TemperatureHighF,TemperatureAvgF,TemperatureLowF,DewpointHighF,DewpointAvgF,DewpointLowF,HumidityHigh,HumidityAvg,HumidityLow,PressureMaxIn,PressureMinIn,WindSpeedMaxMPH,WindSpeedAvgMPH,GustSpeedMaxMPH,PrecipitationSumIn
2013-5-1,76.0,61.5,44.8,57.0,48.6,38.6,98,67,33,30.27,30.15,12,2,13,0.00
2013-5-2,76.5,55.3,39.5,52.4,42.3,37.1,95,66,28,30.32,30.20,11,1,11,0.00
2013-5-3,74.4,60.3,40.9,49.2,43.3,38.0,96,57,32,30.21,30.10,7,3,21,0.00
2013-5-4,70.3,58.5,41.8,45.5,39.8,29.0,78,51,33,30.17,30.04,7,3,21,0.00
2013-5-5,72.4,59.2,40.8,43.5,36.2,24.0,91,48,18,30.11,29.97,8,3,21,0.00
2013-5-6,69.4,58.3,42.4,55.7,50.9,37.9,91,77,57,30.04,29.95,10,2,20,0.02
2013-5-7,63.9,59.7,56.3,60.2,56.6,53.4,95,89,85,29.98,29.89,10,2,11,0.24
2013-5-8,72.6,60.9,50.3,57.8,52.9,48.9,99,77,45,29.95,29.84,12,1,12,0.38
2013-5-9,77.0,62.7,51.8,61.5,55.0,49.6,98,79,40,29.97,29.88,17,2,17,0.02
2013-5-10,77.2,61.7,52.8,65.6,58.4,51.6,98,90,63,29.97,29.78,29,1,29,0.53
2013-5-11,61.3,58.6,51.2,60.2,56.1,48.2,97,91,80,29.82,29.74,14,2,14,0.17
2013-5-12,53.9,48.0,40.8,49.5,36.9,30.4,92,67,44,30.06,29.80,23,5,26,0.01
2013-5-13,52.8,43.5,30.9,39.2,32.3,28.4,96,67,44,30.14,30.05,20,3,21,0.00
2013-5-14,62.8,53.1,28.3,46.8,40.8,27.3,98,65,45,30.20,29.89,14,1,14,0.01
2013-5-15,86.3,71.0,47.9,66.5,58.0,43.0,88,65,47,29.89,29.67,28,4,28,0.00
2013-5-16,76.7,68.3,57.1,66.9,61.3,55.4,99,80,55,29.94,29.73,16,2,16,0.40
2013-5-17,80.8,69.3,55.6,66.0,59.7,54.2,99,74,46,30.06,29.93,10,0,10,0.00
2013-5-18,80.9,65.3,50.3,66.8,59.1,49.5,99,82,55,30.08,29.97,15,1,16,0.00
2013-5-19,79.9,68.6,57.2,67.6,62.7,56.0,98,82,63,30.06,29.91,11,1,11,0.00
2013-5-20,85.6,72.0,57.8,72.5,65.3,57.0,99,81,56,30.00,29.86,9,0,9,0.00
2013-5-21,85.9,73.9,60.1,73.3,66.6,59.5,99,80,57,29.92,29.78,14,1,14,0.00
2013-5-22,85.5,71.7,63.8,70.8,64.3,60.7,96,79,55,29.85,29.73,20,1,20,0.42
2013-5-23,76.8,65.6,54.6,67.2,62.5,52.7,99,91,62,29.84,29.74,20,1,20,0.80
2013-5-24,54.4,46.1,38.4,52.7,40.6,34.4,95,82,63,30.29,29.84,20,4,20,0.02
2013-5-25,61.8,46.5,31.2,46.0,37.2,30.2,98,73,43,30.34,30.21,18,2,18,0.00
2013-5-26,66.8,50.3,32.4,46.2,39.7,31.3,98,71,40,30.30,30.19,14,1,14,0.00
2013-5-27,65.5,51.5,36.7,54.1,46.1,35.6,98,83,51,30.26,30.08,6,0,6,0.01
2013-5-28,80.7,66.3,53.9,70.8,60.6,51.5,98,83,58,30.08,29.96,29,1,29,0.17
2013-5-29,84.6,73.3,62.7,68.7,62.9,58.7,92,71,48,30.06,29.98,21,2,21,0.00
2013-5-30,88.0,73.2,57.4,72.1,64.9,56.5,99,78,52,30.15,30.02,10,0,10,0.00
2013-5-31,87.8,73.9,59.5,72.0,64.8,58.9,99,76,48,30.08,29.93,13,1,13,0.00